sensor_id;sensor_type;location;lat;lon;timestamp;pressure;altitude;pressure_sealevel;temperature;humidity
38289;BME280;24092;53.370;-6.588;2023-02-23T00:02:00;101669.11;;;-2.75;100.00
38289;BME280;24092;53.370;-6.588;2023-02-23T00:04:28;101672.84;;;-3.15;100.00
38289;BME280;24092;53.370;-6.588;2023-02-23T00:06:55;101674.22;;;-3.25;100.00
38289;BME280;24092;53.370;-6.588;2023-02-23T00:09:22;101682.06;;;-3.30;100.00
38289;BME280;24092;53.370;-6.588;2023-02-23T00:11:49;101680.23;;;-2.96;100.00
38289;BME280;24092;53.370;-6.588;2023-02-23T00:14:16;101681.00;;;-3.46;100.00
38289;BME280;24092;53.370;-6.588;2023-02-23T00:16:44;101686.60;;;-3.35;100.00
38289;BME280;24092;53.370;-6.588;2023-02-23T00:19:11;101688.88;;;-3.77;100.00
38289;BME280;24092;53.370;-6.588;2023-02-23T00:21:40;101691.93;;;-3.40;100.00
38289;BME280;24092;53.370;-6.588;2023-02-23T00:24:10;101698.98;;;-3.53;100.00
38289;BME280;24092;53.370;-6.588;2023-02-23T00:26:39;101702.77;;;-3.38;100.00
38289;BME280;24092;53.370;-6.588;2023-02-23T00:29:10;101709.84;;;-3.64;100.00
38289;BME280;24092;53.370;-6.588;2023-02-23T00:31:38;101713.27;;;-3.39;100.00
38289;BME280;24092;53.370;-6.588;2023-02-23T00:34:05;101719.29;;;-3.41;100.00
38289;BME280;24092;53.370;-6.588;2023-02-23T00:36:34;101717.51;;;-4.13;100.00
38289;BME280;24092;53.370;-6.588;2023-02-23T00:39:04;101721.62;;;-3.53;100.00
38289;BME280;24092;53.370;-6.588;2023-02-23T00:41:32;101722.59;;;-3.38;100.00
38289;BME280;24092;53.370;-6.588;2023-02-23T00:43:59;101725.77;;;-2.52;100.00
38289;BME280;24092;53.370;-6.588;2023-02-23T00:46:28;101724.72;;;-2.85;100.00
38289;BME280;24092;53.370;-6.588;2023-02-23T00:51:15;101724.00;;;-4.16;100.00
38289;BME280;24092;53.370;-6.588;2023-02-23T00:53:43;101726.96;;;-4.19;100.00
38289;BME280;24092;53.370;-6.588;2023-02-23T00:56:13;101728.09;;;-2.65;100.00
38289;BME280;24092;53.370;-6.588;2023-02-23T00:58:41;101731.23;;;-3.65;100.00
38289;BME280;24092;53.370;-6.588;2023-02-23T01:01:11;101733.16;;;-2.97;100.00
38289;BME280;24092;53.370;-6.588;2023-02-23T01:03:40;101731.23;;;-3.91;100.00
38289;BME280;24092;53.370;-6.588;2023-02-23T01:06:10;101729.59;;;-4.05;100.00
38289;BME280;24092;53.370;-6.588;2023-02-23T01:08:39;101728.76;;;-4.23;100.00
38289;BME280;24092;53.370;-6.588;2023-02-23T01:11:08;101732.80;;;-4.69;100.00
38289;BME280;24092;53.370;-6.588;2023-02-23T01:13:36;101730.86;;;-4.42;100.00
38289;BME280;24092;53.370;-6.588;2023-02-23T01:16:04;101735.24;;;-2.81;100.00
38289;BME280;24092;53.370;-6.588;2023-02-23T01:18:32;101738.09;;;-2.75;100.00
38289;BME280;24092;53.370;-6.588;2023-02-23T01:21:00;101743.42;;;-2.40;100.00
38289;BME280;24092;53.370;-6.588;2023-02-23T01:23:27;101748.28;;;-2.83;100.00
38289;BME280;24092;53.370;-6.588;2023-02-23T01:25:54;101750.85;;;-2.19;100.00
38289;BME280;24092;53.370;-6.588;2023-02-23T01:28:22;101753.21;;;-2.80;100.00
38289;BME280;24092;53.370;-6.588;2023-02-23T01:30:49;101750.45;;;-2.53;100.00
38289;BME280;24092;53.370;-6.588;2023-02-23T01:33:16;101748.62;;;-1.05;100.00
38289;BME280;24092;53.370;-6.588;2023-02-23T01:35:43;101750.28;;;-2.04;100.00
38289;BME280;24092;53.370;-6.588;2023-02-23T01:38:11;101752.30;;;-2.40;100.00
38289;BME280;24092;53.370;-6.588;2023-02-23T01:40:42;101754.94;;;-3.55;100.00
38289;BME280;24092;53.370;-6.588;2023-02-23T01:43:13;101756.91;;;-2.48;100.00
38289;BME280;24092;53.370;-6.588;2023-02-23T01:45:42;101763.53;;;-1.99;100.00
38289;BME280;24092;53.370;-6.588;2023-02-23T01:48:12;101765.87;;;-0.92;100.00
38289;BME280;24092;53.370;-6.588;2023-02-23T01:50:46;101768.36;;;0.65;100.00
38289;BME280;24092;53.370;-6.588;2023-02-23T01:53:15;101776.51;;;0.11;100.00
38289;BME280;24092;53.370;-6.588;2023-02-23T01:55:43;101783.52;;;0.10;100.00
38289;BME280;24092;53.370;-6.588;2023-02-23T01:58:14;101784.64;;;-1.42;100.00
38289;BME280;24092;53.370;-6.588;2023-02-23T02:00:46;101791.15;;;-2.29;100.00
38289;BME280;24092;53.370;-6.588;2023-02-23T02:03:21;101789.35;;;-3.11;100.00
38289;BME280;24092;53.370;-6.588;2023-02-23T02:05:50;101788.61;;;-1.31;100.00
38289;BME280;24092;53.370;-6.588;2023-02-23T02:08:18;101789.20;;;-2.25;100.00
38289;BME280;24092;53.370;-6.588;2023-02-23T02:10:46;101795.33;;;-2.34;100.00
38289;BME280;24092;53.370;-6.588;2023-02-23T02:13:17;101794.78;;;-3.61;100.00
38289;BME280;24092;53.370;-6.588;2023-02-23T02:16:06;101801.33;;;-2.39;100.00
38289;BME280;24092;53.370;-6.588;2023-02-23T02:18:47;101796.05;;;-3.52;100.00
38289;BME280;24092;53.370;-6.588;2023-02-23T02:22:44;101798.34;;;-3.35;100.00
38289;BME280;24092;53.370;-6.588;2023-02-23T02:25:35;101801.84;;;-3.29;100.00
38289;BME280;24092;53.370;-6.588;2023-02-23T02:28:26;101801.78;;;-2.50;100.00
38289;BME280;24092;53.370;-6.588;2023-02-23T02:33:58;101800.66;;;-2.54;100.00
38289;BME280;24092;53.370;-6.588;2023-02-23T02:37:02;101805.89;;;-3.42;100.00
38289;BME280;24092;53.370;-6.588;2023-02-23T02:39:39;101806.82;;;-3.82;100.00
38289;BME280;24092;53.370;-6.588;2023-02-23T02:42:16;101804.39;;;-3.52;100.00
38289;BME280;24092;53.370;-6.588;2023-02-23T02:44:52;101805.62;;;-3.67;100.00
38289;BME280;24092;53.370;-6.588;2023-02-23T02:47:25;101808.10;;;-3.63;100.00
38289;BME280;24092;53.370;-6.588;2023-02-23T02:50:01;101804.49;;;-3.98;100.00
38289;BME280;24092;53.370;-6.588;2023-02-23T02:52:34;101804.01;;;-4.46;100.00
38289;BME280;24092;53.370;-6.588;2023-02-23T02:55:08;101805.26;;;-3.16;100.00
38289;BME280;24092;53.370;-6.588;2023-02-23T02:57:38;101806.23;;;-4.25;100.00
38289;BME280;24092;53.370;-6.588;2023-02-23T03:00:06;101807.76;;;-4.23;100.00
38289;BME280;24092;53.370;-6.588;2023-02-23T03:02:37;101812.70;;;-4.38;100.00
38289;BME280;24092;53.370;-6.588;2023-02-23T03:05:12;101813.03;;;-3.57;100.00
38289;BME280;24092;53.370;-6.588;2023-02-23T03:07:44;101818.07;;;-4.72;100.00
38289;BME280;24092;53.370;-6.588;2023-02-23T03:10:23;101819.10;;;-3.38;100.00
38289;BME280;24092;53.370;-6.588;2023-02-23T03:12:57;101820.42;;;-3.18;100.00
38289;BME280;24092;53.370;-6.588;2023-02-23T03:15:36;101819.90;;;-4.07;100.00
38289;BME280;24092;53.370;-6.588;2023-02-23T03:18:20;101824.07;;;-3.57;100.00
38289;BME280;24092;53.370;-6.588;2023-02-23T03:20:57;101817.41;;;-3.58;100.00
38289;BME280;24092;53.370;-6.588;2023-02-23T03:23:33;101814.72;;;-4.28;100.00
38289;BME280;24092;53.370;-6.588;2023-02-23T03:26:07;101820.07;;;-3.08;100.00
38289;BME280;24092;53.370;-6.588;2023-02-23T03:28:40;101821.65;;;-3.17;100.00
38289;BME280;24092;53.370;-6.588;2023-02-23T03:31:16;101827.47;;;-3.62;100.00
38289;BME280;24092;53.370;-6.588;2023-02-23T03:33:53;101827.23;;;-3.82;100.00
38289;BME280;24092;53.370;-6.588;2023-02-23T03:36:26;101821.37;;;-4.19;100.00
38289;BME280;24092;53.370;-6.588;2023-02-23T03:38:59;101822.67;;;-3.06;100.00
38289;BME280;24092;53.370;-6.588;2023-02-23T03:41:29;101819.24;;;-4.16;100.00
38289;BME280;24092;53.370;-6.588;2023-02-23T03:43:59;101823.15;;;-4.77;100.00
38289;BME280;24092;53.370;-6.588;2023-02-23T03:46:29;101821.01;;;-4.07;100.00
38289;BME280;24092;53.370;-6.588;2023-02-23T03:49:00;101828.97;;;-4.36;100.00
38289;BME280;24092;53.370;-6.588;2023-02-23T03:51:31;101832.60;;;-3.14;100.00
38289;BME280;24092;53.370;-6.588;2023-02-23T03:54:02;101835.10;;;-3.52;100.00
38289;BME280;24092;53.370;-6.588;2023-02-23T03:56:37;101836.51;;;-3.17;100.00
38289;BME280;24092;53.370;-6.588;2023-02-23T03:59:07;101841.04;;;-3.65;100.00
38289;BME280;24092;53.370;-6.588;2023-02-23T04:01:37;101845.40;;;-3.22;100.00
38289;BME280;24092;53.370;-6.588;2023-02-23T04:04:07;101845.66;;;-3.35;100.00
38289;BME280;24092;53.370;-6.588;2023-02-23T04:06:39;101851.34;;;-5.07;100.00
38289;BME280;24092;53.370;-6.588;2023-02-23T04:09:10;101850.15;;;-4.81;100.00
38289;BME280;24092;53.370;-6.588;2023-02-23T04:11:43;101849.83;;;-4.87;100.00
38289;BME280;24092;53.370;-6.588;2023-02-23T04:14:17;101853.42;;;-5.28;100.00
38289;BME280;24092;53.370;-6.588;2023-02-23T04:16:48;101854.92;;;-4.81;100.00
38289;BME280;24092;53.370;-6.588;2023-02-23T04:19:15;101858.92;;;-5.21;100.00
38289;BME280;24092;53.370;-6.588;2023-02-23T04:21:42;101856.57;;;-4.25;100.00
38289;BME280;24092;53.370;-6.588;2023-02-23T04:24:10;101857.48;;;-5.15;100.00
38289;BME280;24092;53.370;-6.588;2023-02-23T04:26:37;101863.84;;;-5.03;100.00
38289;BME280;24092;53.370;-6.588;2023-02-23T04:29:04;101862.22;;;-4.71;100.00
38289;BME280;24092;53.370;-6.588;2023-02-23T04:31:31;101863.13;;;-4.68;100.00
38289;BME280;24092;53.370;-6.588;2023-02-23T04:33:59;101863.21;;;-4.23;100.00
38289;BME280;24092;53.370;-6.588;2023-02-23T04:36:26;101867.89;;;-5.30;100.00
38289;BME280;24092;53.370;-6.588;2023-02-23T04:38:53;101866.36;;;-3.57;100.00
38289;BME280;24092;53.370;-6.588;2023-02-23T04:41:21;101862.72;;;-4.93;100.00
38289;BME280;24092;53.370;-6.588;2023-02-23T04:43:48;101870.49;;;-4.12;100.00
38289;BME280;24092;53.370;-6.588;2023-02-23T04:46:20;101867.77;;;-4.46;100.00
38289;BME280;24092;53.370;-6.588;2023-02-23T04:48:47;101868.48;;;-4.89;100.00
38289;BME280;24092;53.370;-6.588;2023-02-23T04:51:15;101864.37;;;-5.40;100.00
38289;BME280;24092;53.370;-6.588;2023-02-23T04:53:42;101866.22;;;-4.25;100.00
38289;BME280;24092;53.370;-6.588;2023-02-23T04:56:09;101864.59;;;-4.06;100.00
38289;BME280;24092;53.370;-6.588;2023-02-23T04:58:37;101859.44;;;-4.25;100.00
38289;BME280;24092;53.370;-6.588;2023-02-23T05:01:05;101862.86;;;-4.96;100.00
38289;BME280;24092;53.370;-6.588;2023-02-23T05:03:33;101862.59;;;-3.76;100.00
38289;BME280;24092;53.370;-6.588;2023-02-23T05:06:00;101861.50;;;-3.40;100.00
38289;BME280;24092;53.370;-6.588;2023-02-23T05:08:27;101860.61;;;-4.82;100.00
38289;BME280;24092;53.370;-6.588;2023-02-23T05:10:54;101853.81;;;-3.19;100.00
38289;BME280;24092;53.370;-6.588;2023-02-23T05:13:22;101849.04;;;-5.17;100.00
38289;BME280;24092;53.370;-6.588;2023-02-23T05:15:49;101841.17;;;-3.58;100.00
38289;BME280;24092;53.370;-6.588;2023-02-23T05:18:16;101832.95;;;-3.39;100.00
38289;BME280;24092;53.370;-6.588;2023-02-23T05:20:43;101831.92;;;-3.19;100.00
38289;BME280;24092;53.370;-6.588;2023-02-23T05:23:11;101838.85;;;-1.40;100.00
38289;BME280;24092;53.370;-6.588;2023-02-23T05:25:38;101840.40;;;-0.44;100.00
38289;BME280;24092;53.370;-6.588;2023-02-23T05:28:05;101843.31;;;0.26;100.00
38289;BME280;24092;53.370;-6.588;2023-02-23T05:30:32;101849.34;;;0.33;100.00
38289;BME280;24092;53.370;-6.588;2023-02-23T05:32:59;101851.46;;;0.63;100.00
38289;BME280;24092;53.370;-6.588;2023-02-23T05:35:28;101852.28;;;-1.01;100.00
38289;BME280;24092;53.370;-6.588;2023-02-23T05:37:55;101857.35;;;-1.71;100.00
38289;BME280;24092;53.370;-6.588;2023-02-23T05:40:22;101856.20;;;0.15;100.00
38289;BME280;24092;53.370;-6.588;2023-02-23T05:42:49;101853.10;;;0.43;100.00
38289;BME280;24092;53.370;-6.588;2023-02-23T05:45:17;101856.42;;;-0.82;100.00
38289;BME280;24092;53.370;-6.588;2023-02-23T05:47:44;101863.33;;;-0.58;100.00
38289;BME280;24092;53.370;-6.588;2023-02-23T05:50:11;101868.94;;;-3.31;100.00
38289;BME280;24092;53.370;-6.588;2023-02-23T05:52:39;101869.68;;;-2.44;100.00
38289;BME280;24092;53.370;-6.588;2023-02-23T05:55:09;101863.56;;;-3.65;100.00
38289;BME280;24092;53.370;-6.588;2023-02-23T05:57:36;101860.15;;;-3.57;100.00
38289;BME280;24092;53.370;-6.588;2023-02-23T06:00:05;101861.24;;;-3.21;100.00
38289;BME280;24092;53.370;-6.588;2023-02-23T06:02:33;101854.60;;;-4.58;100.00
38289;BME280;24092;53.370;-6.588;2023-02-23T06:05:00;101855.22;;;-2.71;100.00
38289;BME280;24092;53.370;-6.588;2023-02-23T06:07:27;101853.21;;;-1.82;100.00
38289;BME280;24092;53.370;-6.588;2023-02-23T06:09:54;101849.66;;;-3.20;100.00
38289;BME280;24092;53.370;-6.588;2023-02-23T06:12:22;101842.04;;;-4.27;100.00
38289;BME280;24092;53.370;-6.588;2023-02-23T06:14:49;101841.41;;;-3.94;100.00
38289;BME280;24092;53.370;-6.588;2023-02-23T06:17:17;101851.46;;;-1.96;100.00
38289;BME280;24092;53.370;-6.588;2023-02-23T06:19:44;101858.89;;;-2.62;100.00
38289;BME280;24092;53.370;-6.588;2023-02-23T06:22:11;101858.08;;;-1.76;100.00
38289;BME280;24092;53.370;-6.588;2023-02-23T06:24:38;101854.66;;;-2.34;100.00
38289;BME280;24092;53.370;-6.588;2023-02-23T06:27:05;101855.84;;;-3.62;100.00
38289;BME280;24092;53.370;-6.588;2023-02-23T06:29:32;101860.14;;;-3.46;100.00
38289;BME280;24092;53.370;-6.588;2023-02-23T06:32:00;101865.48;;;-3.50;100.00
38289;BME280;24092;53.370;-6.588;2023-02-23T06:34:28;101865.71;;;-3.59;100.00
38289;BME280;24092;53.370;-6.588;2023-02-23T06:36:54;101871.50;;;-3.26;100.00
38289;BME280;24092;53.370;-6.588;2023-02-23T06:39:22;101878.52;;;-3.64;100.00
38289;BME280;24092;53.370;-6.588;2023-02-23T06:41:49;101881.84;;;-3.46;100.00
38289;BME280;24092;53.370;-6.588;2023-02-23T06:44:16;101882.79;;;-2.85;100.00
38289;BME280;24092;53.370;-6.588;2023-02-23T06:46:44;101884.08;;;-1.86;100.00
38289;BME280;24092;53.370;-6.588;2023-02-23T06:49:11;101880.63;;;-1.36;100.00
38289;BME280;24092;53.370;-6.588;2023-02-23T06:51:38;101884.13;;;-1.32;100.00
38289;BME280;24092;53.370;-6.588;2023-02-23T06:54:06;101892.94;;;-1.72;100.00
38289;BME280;24092;53.370;-6.588;2023-02-23T06:56:32;101892.91;;;-1.75;100.00
38289;BME280;24092;53.370;-6.588;2023-02-23T06:59:00;101897.65;;;-1.92;100.00
38289;BME280;24092;53.370;-6.588;2023-02-23T07:01:27;101897.94;;;-2.50;100.00
38289;BME280;24092;53.370;-6.588;2023-02-23T07:03:54;101904.26;;;-3.04;100.00
38289;BME280;24092;53.370;-6.588;2023-02-23T07:06:21;101909.98;;;-2.11;100.00
38289;BME280;24092;53.370;-6.588;2023-02-23T07:08:48;101902.59;;;-0.92;100.00
38289;BME280;24092;53.370;-6.588;2023-02-23T07:11:16;101901.04;;;0.29;100.00
38289;BME280;24092;53.370;-6.588;2023-02-23T07:13:44;101905.41;;;-0.30;100.00
38289;BME280;24092;53.370;-6.588;2023-02-23T07:16:11;101918.74;;;-1.76;100.00
38289;BME280;24092;53.370;-6.588;2023-02-23T07:18:39;101921.82;;;-4.14;100.00
38289;BME280;24092;53.370;-6.588;2023-02-23T07:21:06;101926.83;;;-1.32;100.00
38289;BME280;24092;53.370;-6.588;2023-02-23T07:23:33;101927.57;;;-2.54;100.00
38289;BME280;24092;53.370;-6.588;2023-02-23T07:26:00;101929.30;;;-2.61;100.00
38289;BME280;24092;53.370;-6.588;2023-02-23T07:28:27;101933.49;;;-2.05;100.00
38289;BME280;24092;53.370;-6.588;2023-02-23T07:30:55;101935.28;;;-1.93;100.00
38289;BME280;24092;53.370;-6.588;2023-02-23T07:33:22;101938.90;;;-1.80;100.00
38289;BME280;24092;53.370;-6.588;2023-02-23T07:35:49;101938.89;;;-0.72;100.00
38289;BME280;24092;53.370;-6.588;2023-02-23T07:38:16;101938.53;;;-0.68;100.00
38289;BME280;24092;53.370;-6.588;2023-02-23T07:40:43;101944.94;;;-1.40;100.00
38289;BME280;24092;53.370;-6.588;2023-02-23T07:43:11;101950.27;;;-0.56;100.00
38289;BME280;24092;53.370;-6.588;2023-02-23T07:45:38;101955.41;;;-1.60;100.00
38289;BME280;24092;53.370;-6.588;2023-02-23T07:48:05;101961.04;;;-0.72;100.00
38289;BME280;24092;53.370;-6.588;2023-02-23T07:50:32;101959.65;;;-0.00;100.00
38289;BME280;24092;53.370;-6.588;2023-02-23T07:53:00;101969.12;;;-1.44;100.00
38289;BME280;24092;53.370;-6.588;2023-02-23T07:55:27;101976.05;;;-1.21;100.00
38289;BME280;24092;53.370;-6.588;2023-02-23T07:57:54;101978.39;;;-0.95;100.00
38289;BME280;24092;53.370;-6.588;2023-02-23T08:00:21;101972.84;;;-0.64;100.00
38289;BME280;24092;53.370;-6.588;2023-02-23T08:02:49;101974.71;;;-1.76;100.00
38289;BME280;24092;53.370;-6.588;2023-02-23T08:05:17;101963.58;;;-2.97;100.00
38289;BME280;24092;53.370;-6.588;2023-02-23T08:07:44;101964.94;;;-2.28;100.00
38289;BME280;24092;53.370;-6.588;2023-02-23T08:10:12;101964.59;;;-3.61;100.00
38289;BME280;24092;53.370;-6.588;2023-02-23T08:12:39;101967.68;;;-3.33;100.00
38289;BME280;24092;53.370;-6.588;2023-02-23T08:15:08;101972.15;;;-3.62;100.00
38289;BME280;24092;53.370;-6.588;2023-02-23T08:17:36;101971.83;;;-3.31;100.00
38289;BME280;24092;53.370;-6.588;2023-02-23T08:20:04;101972.49;;;-2.34;100.00
38289;BME280;24092;53.370;-6.588;2023-02-23T08:22:32;101969.41;;;-1.63;100.00
38289;BME280;24092;53.370;-6.588;2023-02-23T08:24:59;101968.25;;;-0.77;100.00
38289;BME280;24092;53.370;-6.588;2023-02-23T08:27:26;101977.91;;;-1.33;100.00
38289;BME280;24092;53.370;-6.588;2023-02-23T08:29:55;101978.64;;;-0.85;100.00
38289;BME280;24092;53.370;-6.588;2023-02-23T08:32:22;101979.61;;;-1.67;100.00
38289;BME280;24092;53.370;-6.588;2023-02-23T08:34:49;101978.74;;;-2.34;100.00
38289;BME280;24092;53.370;-6.588;2023-02-23T08:37:16;101977.88;;;-2.55;100.00
38289;BME280;24092;53.370;-6.588;2023-02-23T08:39:43;101979.82;;;-3.11;100.00
38289;BME280;24092;53.370;-6.588;2023-02-23T08:42:11;101980.52;;;-3.68;100.00
38289;BME280;24092;53.370;-6.588;2023-02-23T08:44:38;101979.29;;;-2.19;100.00
38289;BME280;24092;53.370;-6.588;2023-02-23T08:47:05;101978.16;;;-3.33;100.00
38289;BME280;24092;53.370;-6.588;2023-02-23T08:49:33;101982.35;;;-3.43;100.00
38289;BME280;24092;53.370;-6.588;2023-02-23T08:52:00;101979.93;;;-2.44;100.00
38289;BME280;24092;53.370;-6.588;2023-02-23T08:54:27;101980.38;;;-3.38;100.00
38289;BME280;24092;53.370;-6.588;2023-02-23T08:56:55;101981.69;;;-3.39;100.00
38289;BME280;24092;53.370;-6.588;2023-02-23T08:59:23;101987.30;;;-1.83;100.00
38289;BME280;24092;53.370;-6.588;2023-02-23T09:01:50;101990.15;;;-0.93;100.00
38289;BME280;24092;53.370;-6.588;2023-02-23T09:04:18;101993.92;;;-1.47;100.00
38289;BME280;24092;53.370;-6.588;2023-02-23T09:06:46;101994.82;;;-1.61;100.00
38289;BME280;24092;53.370;-6.588;2023-02-23T09:09:13;101991.46;;;-0.22;100.00
38289;BME280;24092;53.370;-6.588;2023-02-23T09:11:40;101993.97;;;-0.01;100.00
38289;BME280;24092;53.370;-6.588;2023-02-23T09:14:08;101994.59;;;0.60;100.00
38289;BME280;24092;53.370;-6.588;2023-02-23T09:16:35;101992.42;;;0.16;100.00
38289;BME280;24092;53.370;-6.588;2023-02-23T09:19:02;102000.07;;;-0.51;100.00
38289;BME280;24092;53.370;-6.588;2023-02-23T09:21:29;102005.94;;;1.22;100.00
38289;BME280;24092;53.370;-6.588;2023-02-23T09:23:57;102006.26;;;1.79;100.00
38289;BME280;24092;53.370;-6.588;2023-02-23T09:26:24;102000.23;;;1.23;100.00
38289;BME280;24092;53.370;-6.588;2023-02-23T09:28:51;102001.40;;;1.02;100.00
38289;BME280;24092;53.370;-6.588;2023-02-23T09:31:21;102000.34;;;1.15;100.00
38289;BME280;24092;53.370;-6.588;2023-02-23T09:33:48;101999.29;;;1.27;100.00
38289;BME280;24092;53.370;-6.588;2023-02-23T09:36:18;102003.81;;;1.84;100.00
38289;BME280;24092;53.370;-6.588;2023-02-23T09:38:48;102007.17;;;1.87;100.00
38289;BME280;24092;53.370;-6.588;2023-02-23T09:41:53;102003.87;;;2.18;100.00
38289;BME280;24092;53.370;-6.588;2023-02-23T09:44:33;102000.33;;;1.65;100.00
38289;BME280;24092;53.370;-6.588;2023-02-23T09:47:10;102001.37;;;1.91;100.00
38289;BME280;24092;53.370;-6.588;2023-02-23T09:49:43;102000.64;;;1.51;100.00
38289;BME280;24092;53.370;-6.588;2023-02-23T09:52:15;101999.53;;;1.85;100.00
38289;BME280;24092;53.370;-6.588;2023-02-23T09:54:43;101999.72;;;1.80;100.00
38289;BME280;24092;53.370;-6.588;2023-02-23T09:57:13;102001.75;;;1.49;100.00
38289;BME280;24092;53.370;-6.588;2023-02-23T09:59:41;102003.22;;;1.26;100.00
38289;BME280;24092;53.370;-6.588;2023-02-23T10:02:16;102004.67;;;2.11;100.00
38289;BME280;24092;53.370;-6.588;2023-02-23T10:04:49;102008.56;;;2.09;100.00
38289;BME280;24092;53.370;-6.588;2023-02-23T10:07:21;102011.42;;;1.24;100.00
38289;BME280;24092;53.370;-6.588;2023-02-23T10:10:02;102001.07;;;2.09;100.00
38289;BME280;24092;53.370;-6.588;2023-02-23T10:12:38;102001.06;;;2.34;100.00
38289;BME280;24092;53.370;-6.588;2023-02-23T10:15:23;102008.04;;;3.24;100.00
38289;BME280;24092;53.370;-6.588;2023-02-23T10:17:59;102006.56;;;2.90;100.00
38289;BME280;24092;53.370;-6.588;2023-02-23T10:20:38;102004.37;;;0.20;100.00
38289;BME280;24092;53.370;-6.588;2023-02-23T10:23:11;102002.17;;;1.19;100.00
38289;BME280;24092;53.370;-6.588;2023-02-23T10:25:43;101998.52;;;-0.75;100.00
38289;BME280;24092;53.370;-6.588;2023-02-23T10:28:14;101999.70;;;0.37;100.00
38289;BME280;24092;53.370;-6.588;2023-02-23T10:30:43;102000.24;;;2.54;100.00
38289;BME280;24092;53.370;-6.588;2023-02-23T10:33:14;102006.64;;;1.64;100.00
38289;BME280;24092;53.370;-6.588;2023-02-23T10:35:43;102008.31;;;0.59;100.00
38289;BME280;24092;53.370;-6.588;2023-02-23T10:38:14;102011.43;;;0.55;100.00
38289;BME280;24092;53.370;-6.588;2023-02-23T10:40:43;102009.17;;;0.09;100.00
38289;BME280;24092;53.370;-6.588;2023-02-23T10:43:12;102015.15;;;-1.76;100.00
38289;BME280;24092;53.370;-6.588;2023-02-23T10:45:44;102012.11;;;-0.86;100.00
38289;BME280;24092;53.370;-6.588;2023-02-23T10:48:16;102014.47;;;-0.49;100.00
38289;BME280;24092;53.370;-6.588;2023-02-23T10:50:44;102007.18;;;-0.65;100.00
38289;BME280;24092;53.370;-6.588;2023-02-23T10:53:16;102008.24;;;0.73;100.00
38289;BME280;24092;53.370;-6.588;2023-02-23T10:55:45;102012.43;;;-1.18;100.00
38289;BME280;24092;53.370;-6.588;2023-02-23T10:58:15;102011.91;;;-1.23;100.00
38289;BME280;24092;53.370;-6.588;2023-02-23T11:00:51;102015.69;;;-0.59;100.00
38289;BME280;24092;53.370;-6.588;2023-02-23T11:03:24;102015.84;;;-1.47;100.00
38289;BME280;24092;53.370;-6.588;2023-02-23T11:05:53;102010.25;;;0.19;100.00
38289;BME280;24092;53.370;-6.588;2023-02-23T11:08:23;102011.53;;;0.69;100.00
38289;BME280;24092;53.370;-6.588;2023-02-23T11:11:19;102010.07;;;0.08;100.00
38289;BME280;24092;53.370;-6.588;2023-02-23T11:13:50;102011.78;;;-1.41;100.00
38289;BME280;24092;53.370;-6.588;2023-02-23T11:16:19;102006.16;;;-0.07;100.00
38289;BME280;24092;53.370;-6.588;2023-02-23T11:18:51;102001.59;;;1.14;100.00
38289;BME280;24092;53.370;-6.588;2023-02-23T11:21:22;101998.28;;;2.89;100.00
38289;BME280;24092;53.370;-6.588;2023-02-23T11:23:53;101993.11;;;0.96;100.00
38289;BME280;24092;53.370;-6.588;2023-02-23T11:26:28;101985.53;;;0.82;100.00
38289;BME280;24092;53.370;-6.588;2023-02-23T11:28:59;101984.28;;;0.54;100.00
38289;BME280;24092;53.370;-6.588;2023-02-23T11:31:31;101982.27;;;0.21;100.00
38289;BME280;24092;53.370;-6.588;2023-02-23T11:34:01;101982.95;;;-0.08;100.00
38289;BME280;24092;53.370;-6.588;2023-02-23T11:36:30;101979.06;;;0.07;100.00
38289;BME280;24092;53.370;-6.588;2023-02-23T11:39:18;101982.30;;;-1.04;100.00
38289;BME280;24092;53.370;-6.588;2023-02-23T11:41:45;101973.43;;;0.01;100.00
38289;BME280;24092;53.370;-6.588;2023-02-23T11:44:19;101974.59;;;0.55;100.00
38289;BME280;24092;53.370;-6.588;2023-02-23T11:46:47;101974.83;;;1.05;100.00
38289;BME280;24092;53.370;-6.588;2023-02-23T11:49:18;101972.01;;;1.83;100.00
38289;BME280;24092;53.370;-6.588;2023-02-23T11:51:48;101970.51;;;2.03;100.00
38289;BME280;24092;53.370;-6.588;2023-02-23T11:54:22;101969.63;;;-0.01;100.00
38289;BME280;24092;53.370;-6.588;2023-02-23T11:56:51;101969.47;;;0.75;100.00
38289;BME280;24092;53.370;-6.588;2023-02-23T11:59:22;101968.90;;;0.22;100.00
38289;BME280;24092;53.370;-6.588;2023-02-23T12:01:55;101967.69;;;0.63;100.00
38289;BME280;24092;53.370;-6.588;2023-02-23T12:04:28;101964.48;;;-0.33;100.00
38289;BME280;24092;53.370;-6.588;2023-02-23T12:07:20;101965.26;;;0.20;100.00
38289;BME280;24092;53.370;-6.588;2023-02-23T12:09:56;101961.23;;;0.53;100.00
38289;BME280;24092;53.370;-6.588;2023-02-23T12:12:27;101955.10;;;0.75;100.00
38289;BME280;24092;53.370;-6.588;2023-02-23T12:15:00;101949.96;;;-0.14;100.00
38289;BME280;24092;53.370;-6.588;2023-02-23T12:17:33;101942.52;;;0.39;100.00
38289;BME280;24092;53.370;-6.588;2023-02-23T12:20:04;101931.40;;;1.29;100.00
38289;BME280;24092;53.370;-6.588;2023-02-23T12:22:35;101930.14;;;0.62;100.00
38289;BME280;24092;53.370;-6.588;2023-02-23T12:25:13;101924.77;;;1.66;100.00
38289;BME280;24092;53.370;-6.588;2023-02-23T12:27:47;101928.52;;;2.25;100.00
38289;BME280;24092;53.370;-6.588;2023-02-23T12:30:22;101922.55;;;1.47;100.00
38289;BME280;24092;53.370;-6.588;2023-02-23T12:32:55;101923.70;;;0.70;100.00
38289;BME280;24092;53.370;-6.588;2023-02-23T12:35:27;101913.51;;;-0.11;100.00
38289;BME280;24092;53.370;-6.588;2023-02-23T12:38:00;101908.72;;;0.12;100.00
38289;BME280;24092;53.370;-6.588;2023-02-23T12:40:32;101907.84;;;0.28;100.00
38289;BME280;24092;53.370;-6.588;2023-02-23T12:43:04;101905.72;;;1.15;100.00
38289;BME280;24092;53.370;-6.588;2023-02-23T12:45:36;101912.16;;;1.08;100.00
38289;BME280;24092;53.370;-6.588;2023-02-23T12:48:14;101907.33;;;1.04;100.00
38289;BME280;24092;53.370;-6.588;2023-02-23T12:50:50;101908.72;;;1.18;100.00
38289;BME280;24092;53.370;-6.588;2023-02-23T12:53:21;101899.08;;;1.87;100.00
38289;BME280;24092;53.370;-6.588;2023-02-23T12:56:02;101894.58;;;1.58;100.00